Change Date:Time:

Metar of : 11/20/2018 1100UTC
Metar
OPBK 1100Z 00000KT CAVOK 19/07 45%
OPBKR 00000KT CAVOK 29/13 38%
OPBN 1100UTC 13004 KT 9999 FEW120 25/08 35%
OPBR 00000KT CAVOK 28/15 47%
OPBW 00000KT 2500 HZ NSC 28/10 Q1016 33%
OPBW( CITY) 00000KT 3000 HZ NSC 27/14 44%
OPCH 201100Z 00000KT 9999 SCT040 SCT100 17/04 Q1022 43%
OPCK 31002KT 9000 NSC 24/08 35%
OPDG 13002KT 4000 HZ NSC 28/14 Q1019 42%
OPDH 201100Z 13510KT 9999 FEW 040 SCT 100 17/-06 21%
OPDIR 1100Z 18002KT 9999 SCT035 FEW100 18/00 RH29
OPDU 201100Z 05002KT 6000 FU NSC 27/10 RH 35%
OPFA 36004KT 7000 NSC 27/08 Q1016 NOSIG RH31%
OPGD 201100Z 13010KT 7000 NSC 30/20 Q1015 RH 56%
OPGP 31004KT CAVOK 21/08 44%
OPGPS 27002KT 8000 SCT040 SCT100 09/M02 47%
OPGT 00000KT 9000 FEW040 13/06 Q1023 62% A/V CLEAR
OPGW 31004KT CAVOK 25/14 51%
OPHQ 31002KT 9000 FEW100 24/06 Q1015 RH 32%
OPIS 30011KT 7000 NSC 23/05 Q1017 RH31%
OPJBD 00000KT CAVOK 29/11 32%
OPJD 201100Z 00000KT 6000 HZ NSC 28/14 Q1017 RH 44%
OPJG 00000KT CAVOK 29/10 Q1015 30%
OPJM 31002KT 7000 NSC 27/08 31%
OPKAD 00000KT 8000 NSC 29/14 40%
OPKE 201100Z 04504KT 4500 FU NSC 34/13 Q1013 RH 27%
OPKK 20 1100Z 00000KT CAVOK 19/04 37%
OPKL 00000KT CAVOK 26/10 35%
OPKP 00000KT 4000 HZ NSC 28/13 39%
OPKRL 00000KT 5000 HZ NSC 27/10 35%
OPKS 23002KT 6000 NSC 27/12 40%
OPLA 30005KT 4000 HZ NSC 27/09 Q1016 A30.02 NOSIG RH32%
OPLA( CITY) 00000KT 5000 HZ NSC 27/11 Q1015 RH38% H/RAIN NIL
OPLRK 20110Z 36002KT 6000 NSC 29/15 Q1016 RH 43%
OPMA 31002KT 7000 NSC 28/10 Q1018 33%
OPMB 00000KT 6000 NSC 28/13 Q1016 41%
OPME 00000KT 9999 FEW040 FEW100 14/04 51%
OPMF 00000KT 7000 NSC 21/11 51%
OPMIT 201100 36004KT 6000 NSC 33/09 Q1012 RH 22%
OPMJ 201100Z 31004KT 6000 NSC 29/14 Q1016 RH 40%NOSIG
OPMJB 1100Z 13002KT 9999 FEW 040 07/02 RH 63%
OPMT 00000KT 4000 HZ NSC 28/11 Q1016 NOSIG RH36%
OPNH 201100Z 31506KT 3000 FU NSC 29/12 Q1015 RH 35%NOSIG
OPNPT 00000KT 7000 NSC 28/10 33%
OPOK 00000KT 6000 NSC 27/15 Q1017 47%
OPPG 201100Z 36014KT 8000 SKC 27/00 Q1015 RH 18%
OPQT 31006KT CAVOK QBB FEW100 18/M02 Q1024 RH.24%
OPRK 00000KT 5000 HZ NSC 28/11 Q 1016 36%
OPRN 27012KT 9999 NSC 25/07 Q1018 NOSIG RMK A3006 RH 33%
OPRRI 20110Z 04502KT 6000 NSC HZ 29/16 P1P1 0081
OPRT 09002KT CAVOK 17/M02 Q1027 28%
OPSD 00000KT 9999 FEW035 9/M07 Q1026 33% A/V P CLOUDY
OPSG 00000KT 7000 NSC 28/15 45%
OPSK 201100Z 00000KT 4000 HZ NSC 29/14 Q.1015 RH 40% NOSIG
OPSKT 27002KT 6000 NSC 26/12 42%
OPSS 1100Z 00000KT CAVOK 20/07 42%
OPST 31006KT 4000 HZ NSC 27/08 Q1015 NOSIG RH29%
OPSW 31004KT 3000 HZ NSC 27/12 Q1015 40%
OPTMG 1100UTC 18002KT CAVOK 22/07 QBB FEW100 39%
OPTS 36002KT 7000 NSC 27/11 37%
OPTU 201100Z 13006KT CAVOK 34/08 Q1014 RH 20%
OPUG 00000KT 6000 NSC 27/08 29%
CodeW.DirSpeedVisibilityCloud ConditionTempPressureHumidityStation
OPBR00000KTClear28oC47%Bahawalnagar
OPBW00000KT2500mHaze28oC1016hp33%Bahawalpur City
OPBK00000KTClear19oC45%Balakot
OPBKR00000KTClear29oC38%Bhakkar
OPRN27012KT9999mClear25oC1018hp33%CHAKLALA- RAWALPINDI
OPCK31002KT9000mClear24oC35%Chakwal
OPKE04504KT4500mHaze34oC1013hp27%Chhor
OPCH00000KT9999mPartly Cloudy17oC1022hp43%Chitral
OPDG13002KT4000mHaze28oC1019hp42%D-G-KHAN
OPFA36004KT7000mClear27oC1016hp31%Faisalabad Airport
OPGP31004KTClear21oC44%GARHI DOPATTA
OPGD13010KT7000mClear30oC1015hp56%Gawadar
OPGT00000KT9000mPartly Cloudy13oC1023hp62%Gilgit Airport
OPGW31004KTClear25oC51%Gujranwala
OPUG00000KT6000mClear27oC29%Gujrat
OPIS30011KT7000mClear23oC1017hp31%Islamabad Airport
OPHQ31002KT9000mPartly Cloudy24oC1015hp32%Islamabad City
OPJG00000KTClear29oC1015hp30%Jhang
OPJM31002KT7000mClear27oC31%Jhelum
OPJBD00000KTClear29oC32%Joharabad
OPKK00000KTClear19oC37%Kakul
OPKRL00000KT5000mHaze27oC35%KAROR (LAYYAH)
OPKS23002KT6000mClear27oC40%Kasur
OPKP00000KT4000mHaze28oC39%Khanpur
OPKAD00000KT8000mClear29oC40%KOT ADDU
OPKL00000KTClear26oC35%Kotli
OPLA30005KT4000mHaze27oC1016hp32%Lahore Airport
OPTMG18002KTPartly Cloudy22oC39%Lower Dir
OPMJB13002KT9999mPartly Cloudy07oC63%MALAM JABBA
OPMB00000KT6000mClear28oC1016hp41%MANDI BAHUDDIN
OPMA31002KT7000mClear28oC1018hp33%Mangla
OPMJ31004KT6000mClear29oC1016hpMOHENJO DARO
OPMT00000KT4000mHaze28oC1016hp36%Multan
OPME00000KT9999mPartly Cloudy14oC51%Murree
OPMF00000KT7000mClear21oC51%MUZAFFARABAD
OPNPT00000KT7000mClear28oC33%NOOR PUR THAL
OPOK00000KT6000mClear27oC1017hp47%Okara
OPPG36014KT8000mClear27oC1015hp18%Panjgur
OPQT31006KTPartly Cloudy18oC1024hp24%Quetta
OPRT09002KTClear17oC1027hp28%Rawalakot
OPRK00000KT5000mHaze28oC1016hp36%R-Y-KHAN
OPSW31004KT3000mHaze27oC1015hp40%Sahiwal
OPSS00000KTClear20oC42%SAIDU SHARIF
OPNH31506KT3000mHaze29oC1015hpShaheed Benazirabad
OPST31006KT4000mHaze27oC1015hp29%Sialkot Airport
OPSD00000KT9999mPartly Cloudy9oC1026hp33%Skardu
OPSK00000KT4000mHaze29oC1015hp40%Sukkur
OPTS36002KT7000mClear27oC37%T.T. SINGH
OPTU13006KTClear34oC1014hp20%Turbat